createdAt,value
2022-09-07T00:00:08.288Z,62.80
2022-09-07T00:01:08.270Z,63.19
2022-09-07T00:02:08.244Z,64.17
2022-09-07T00:03:08.364Z,65.55
2022-09-07T00:04:08.257Z,64.99
2022-09-07T00:05:08.224Z,64.00
2022-09-07T00:06:08.226Z,61.83
2022-09-07T00:07:08.208Z,64.60
2022-09-07T00:08:08.191Z,63.84
2022-09-07T00:09:08.206Z,63.12
2022-09-07T00:10:08.188Z,63.47
2022-09-07T00:11:08.173Z,62.32
2022-09-07T00:12:08.166Z,65.32
2022-09-07T00:13:08.137Z,63.06
2022-09-07T00:14:08.131Z,57.79
2022-09-07T00:15:08.151Z,62.52
2022-09-07T00:16:08.169Z,62.12
2022-09-07T00:17:08.104Z,62.37
2022-09-07T00:18:08.094Z,59.86
2022-09-07T00:19:08.085Z,63.06
2022-09-07T00:20:08.081Z,61.93
2022-09-07T00:21:08.070Z,63.32
2022-09-07T00:22:08.054Z,64.58
2022-09-07T00:23:08.041Z,63.09
2022-09-07T00:24:08.032Z,63.59
2022-09-07T00:25:08.029Z,64.36
2022-09-07T00:26:08.006Z,63.31
2022-09-07T00:27:08.001Z,62.24
2022-09-07T00:28:07.998Z,64.58
2022-09-07T00:29:07.994Z,62.23
2022-09-07T00:30:07.986Z,61.83
2022-09-07T00:31:08.045Z,60.72
2022-09-07T00:32:07.952Z,61.31
2022-09-07T00:33:07.926Z,63.20
2022-09-07T00:34:07.964Z,61.32
2022-09-07T00:35:07.939Z,61.77
2022-09-07T00:36:07.918Z,62.46
2022-09-07T00:37:07.907Z,61.28
2022-09-07T00:38:07.891Z,61.51
2022-09-07T00:39:07.881Z,63.42
2022-09-07T00:40:07.965Z,63.30
2022-09-07T00:41:07.883Z,62.23
2022-09-07T00:42:07.854Z,63.45
2022-09-07T00:43:07.846Z,63.95
2022-09-07T00:44:07.833Z,64.26
2022-09-07T00:45:07.916Z,60.59
2022-09-07T00:46:07.860Z,61.77
2022-09-07T00:47:07.822Z,60.31
2022-09-07T00:48:07.807Z,62.81
2022-09-07T00:49:07.785Z,61.63
2022-09-07T00:50:07.806Z,64.47
2022-09-07T00:51:07.780Z,63.07
2022-09-07T00:52:07.758Z,61.06
2022-09-07T00:53:07.748Z,62.10
2022-09-07T00:54:07.741Z,62.64
2022-09-07T00:55:07.761Z,62.82
2022-09-07T00:56:07.727Z,63.73
2022-09-07T00:57:07.714Z,63.25
2022-09-07T00:58:07.722Z,63.15
2022-09-07T00:59:07.693Z,63.85
2022-09-07T01:00:07.703Z,60.02
2022-09-07T01:01:07.664Z,61.68
2022-09-07T01:02:07.715Z,62.92
2022-09-07T01:03:07.716Z,62.87
2022-09-07T01:04:07.639Z,62.77
2022-09-07T01:05:09.485Z,61.40
2022-09-07T01:06:08.625Z,63.37
2022-09-07T01:07:07.613Z,63.92
2022-09-07T01:08:07.606Z,62.63
2022-09-07T01:09:07.601Z,63.57
2022-09-07T01:10:07.608Z,62.63
2022-09-07T01:11:07.576Z,62.56
2022-09-07T01:12:07.569Z,59.58
2022-09-07T01:13:07.549Z,63.44
2022-09-07T01:14:07.544Z,62.55
2022-09-07T01:15:07.563Z,61.57
2022-09-07T01:16:07.557Z,60.07
2022-09-07T01:17:07.502Z,61.59
2022-09-07T01:18:07.503Z,61.78
2022-09-07T01:19:07.497Z,61.71
2022-09-07T01:20:07.519Z,62.89
2022-09-07T01:21:07.475Z,62.52
2022-09-07T01:22:07.484Z,62.62
2022-09-07T01:23:07.456Z,64.02
2022-09-07T01:24:07.446Z,62.84
2022-09-07T01:25:07.455Z,61.31
2022-09-07T01:26:07.426Z,63.58
2022-09-07T01:27:07.418Z,62.80
2022-09-07T01:28:07.418Z,63.82
2022-09-07T01:29:07.387Z,62.70
2022-09-07T01:30:07.406Z,62.93
2022-09-07T01:31:07.416Z,65.29
2022-09-07T01:32:07.362Z,63.40
2022-09-07T01:33:07.351Z,64.03
2022-09-07T01:34:07.347Z,64.09
2022-09-07T01:35:07.355Z,64.00
2022-09-07T01:36:07.326Z,62.91
2022-09-07T01:37:07.320Z,64.29
2022-09-07T01:38:07.309Z,63.81
2022-09-07T01:39:07.294Z,61.22
2022-09-07T01:40:07.380Z,62.62
2022-09-07T01:41:07.280Z,62.80
2022-09-07T01:42:07.265Z,64.63
2022-09-07T01:43:07.259Z,62.26
2022-09-07T01:44:07.253Z,62.43
2022-09-07T01:45:07.272Z,58.94
2022-09-07T01:46:07.325Z,62.94
2022-09-07T01:47:07.217Z,62.49
2022-09-07T01:48:07.213Z,62.05
2022-09-07T01:49:07.214Z,61.41
2022-09-07T01:50:07.212Z,62.30
2022-09-07T01:51:07.188Z,62.97
2022-09-07T01:52:07.172Z,61.85
2022-09-07T01:53:07.171Z,60.94
2022-09-07T01:54:07.154Z,58.34
2022-09-07T01:55:07.170Z,60.88
2022-09-07T01:56:07.136Z,62.09
2022-09-07T01:57:07.114Z,61.46
2022-09-07T01:58:07.112Z,61.72
2022-09-07T01:59:07.106Z,61.39
2022-09-07T02:00:07.110Z,61.19
2022-09-07T02:01:07.065Z,61.16
2022-09-07T02:02:07.115Z,62.57
2022-09-07T02:03:07.112Z,60.32
2022-09-07T02:04:07.057Z,61.49
2022-09-07T02:05:07.052Z,61.41
2022-09-07T02:06:07.060Z,61.75
2022-09-07T02:07:07.040Z,62.84
2022-09-07T02:08:07.017Z,64.19
2022-09-07T02:09:06.997Z,62.85
2022-09-07T02:10:07.014Z,62.32
2022-09-07T02:11:06.980Z,62.53
2022-09-07T02:12:06.978Z,64.12
2022-09-07T02:13:06.969Z,63.88
2022-09-07T02:14:06.961Z,64.66
2022-09-07T02:15:06.959Z,63.08
2022-09-07T02:16:07.047Z,65.46
2022-09-07T02:17:06.918Z,64.30
2022-09-07T02:18:06.927Z,63.55
2022-09-07T02:19:06.902Z,63.52
2022-09-07T02:20:06.925Z,63.62
2022-09-07T02:21:06.874Z,63.65
2022-09-07T02:22:06.875Z,62.80
2022-09-07T02:23:06.890Z,61.86
2022-09-07T02:24:06.855Z,63.18
2022-09-07T02:25:06.852Z,63.64
2022-09-07T02:26:06.832Z,63.35
2022-09-07T02:27:06.824Z,63.01
2022-09-07T02:28:06.817Z,63.06
2022-09-07T02:29:06.794Z,61.89
2022-09-07T02:30:06.787Z,62.64
2022-09-07T02:31:06.853Z,63.54
2022-09-07T02:32:06.801Z,62.14
2022-09-07T02:33:06.767Z,61.26
2022-09-07T02:34:06.751Z,59.90
2022-09-07T02:35:06.744Z,61.06
2022-09-07T02:36:06.750Z,63.47
2022-09-07T02:37:06.715Z,63.39
2022-09-07T02:38:06.711Z,62.68
2022-09-07T02:39:06.700Z,62.24
2022-09-07T02:40:06.752Z,63.28
2022-09-07T02:41:07.693Z,61.70
2022-09-07T02:42:06.682Z,64.49
2022-09-07T02:43:06.662Z,64.23
2022-09-07T02:44:06.653Z,64.34
2022-09-07T02:45:06.638Z,63.05
2022-09-07T02:46:06.707Z,62.09
2022-09-07T02:47:06.624Z,61.58
2022-09-07T02:48:06.615Z,61.77
2022-09-07T02:49:06.610Z,62.36
2022-09-07T02:50:06.588Z,64.67
2022-09-07T02:51:06.598Z,64.30
2022-09-07T02:52:06.576Z,66.24
2022-09-07T02:53:06.562Z,64.12
2022-09-07T02:54:06.549Z,63.57
2022-09-07T02:55:06.552Z,60.53
2022-09-07T02:56:06.551Z,61.02
2022-09-07T02:57:06.523Z,63.25
2022-09-07T02:58:06.497Z,61.63
2022-09-07T02:59:07.502Z,59.98
2022-09-07T03:00:06.504Z,60.60
2022-09-07T03:01:06.531Z,63.73
2022-09-07T03:02:06.530Z,63.50
2022-09-07T03:03:06.469Z,62.37
2022-09-07T03:04:06.463Z,63.57
2022-09-07T03:05:06.445Z,62.40
2022-09-07T03:06:06.461Z,64.26
2022-09-07T03:07:06.456Z,63.58
2022-09-07T03:08:06.421Z,65.42
2022-09-07T03:09:06.409Z,64.05
2022-09-07T03:10:06.409Z,64.29
2022-09-07T03:11:06.387Z,63.41
2022-09-07T03:12:06.383Z,64.01
2022-09-07T03:13:06.369Z,64.57
2022-09-07T03:14:06.359Z,64.12
2022-09-07T03:15:06.364Z,64.91
2022-09-07T03:16:06.360Z,65.42
2022-09-07T03:17:06.321Z,64.74
2022-09-07T03:18:06.309Z,63.84
2022-09-07T03:19:06.306Z,63.51
2022-09-07T03:20:06.312Z,65.86
2022-09-07T03:21:06.290Z,63.74
2022-09-07T03:22:06.281Z,64.29
2022-09-07T03:23:06.270Z,65.55
2022-09-07T03:24:06.261Z,66.57
2022-09-07T03:25:06.270Z,67.17
2022-09-07T03:26:06.244Z,66.78
2022-09-07T03:27:06.227Z,66.18
2022-09-07T03:28:06.220Z,67.29
2022-09-07T03:29:06.207Z,67.53
2022-09-07T03:30:06.213Z,67.14
2022-09-07T03:31:06.250Z,65.63
2022-09-07T03:32:06.180Z,65.47
2022-09-07T03:33:06.154Z,67.89
2022-09-07T03:34:06.151Z,65.98
2022-09-07T03:35:06.238Z,68.06
2022-09-07T03:36:06.134Z,66.96
2022-09-07T03:37:06.130Z,66.70
2022-09-07T03:38:06.119Z,67.39
2022-09-07T03:39:06.106Z,68.21
2022-09-07T03:40:06.157Z,66.86
2022-09-07T03:41:06.091Z,67.52
2022-09-07T03:42:06.075Z,67.01
2022-09-07T03:43:06.068Z,67.70
2022-09-07T03:44:06.090Z,69.53
2022-09-07T03:45:06.062Z,68.35
2022-09-07T03:46:06.100Z,65.31
2022-09-07T03:47:06.026Z,68.87
2022-09-07T03:48:06.034Z,68.59
2022-09-07T03:49:06.010Z,69.70
2022-09-07T03:50:06.016Z,69.44
2022-09-07T03:51:05.991Z,67.99
2022-09-07T03:52:05.978Z,69.86
2022-09-07T03:53:05.965Z,68.66
2022-09-07T03:54:05.955Z,68.77
2022-09-07T03:55:05.961Z,69.42
2022-09-07T03:56:05.941Z,69.59
2022-09-07T03:57:05.928Z,68.38
2022-09-07T03:58:05.911Z,69.59
2022-09-07T03:59:06.686Z,68.20
2022-09-07T04:00:05.928Z,69.48
2022-09-07T04:01:05.932Z,67.53
2022-09-07T04:02:05.911Z,66.28
2022-09-07T04:03:05.866Z,68.59
2022-09-07T04:04:05.863Z,68.27
2022-09-07T04:05:05.861Z,67.18
2022-09-07T04:06:05.836Z,68.45
2022-09-07T04:07:05.825Z,67.39
2022-09-07T04:08:05.821Z,68.40
2022-09-07T04:09:05.823Z,68.31
2022-09-07T04:10:05.808Z,65.92
2022-09-07T04:11:05.793Z,66.33
2022-09-07T04:12:05.783Z,66.29
2022-09-07T04:13:05.757Z,66.30
2022-09-07T04:14:05.759Z,68.07
2022-09-07T04:15:05.769Z,67.15
2022-09-07T04:16:05.739Z,67.74
2022-09-07T04:17:05.773Z,67.40
2022-09-07T04:18:05.715Z,66.18
2022-09-07T04:21:48.865Z,69.54
2022-09-07T04:22:51.448Z,67.50
2022-09-07T04:23:49.851Z,66.66
2022-09-07T04:24:48.856Z,68.65
2022-09-07T04:25:48.824Z,67.59
2022-09-07T04:26:48.816Z,67.81
2022-09-07T04:27:48.800Z,67.37
2022-09-07T04:28:48.793Z,66.74
2022-09-07T04:29:48.796Z,68.15
2022-09-07T04:30:48.807Z,67.96
2022-09-07T04:31:48.759Z,66.30
2022-09-07T04:32:49.872Z,67.06
2022-09-07T04:33:49.857Z,68.02
2022-09-07T04:34:49.868Z,68.12
2022-09-07T04:35:49.836Z,67.31
2022-09-07T04:36:49.823Z,67.11
2022-09-07T04:37:49.818Z,67.72
2022-09-07T04:38:49.811Z,68.84
2022-09-07T04:39:49.885Z,68.41
2022-09-07T04:40:49.782Z,67.54
2022-09-07T04:41:49.766Z,65.35
2022-09-07T04:42:49.768Z,68.29
2022-09-07T04:43:49.759Z,68.47
2022-09-07T04:44:49.766Z,67.44
2022-09-07T04:45:49.760Z,67.95
2022-09-07T04:46:49.728Z,67.66
2022-09-07T04:47:49.713Z,65.06
2022-09-07T04:48:49.717Z,67.62
2022-09-07T04:49:49.699Z,68.41
2022-09-07T04:50:49.681Z,68.37
2022-09-07T04:51:49.666Z,67.35
2022-09-07T04:52:50.665Z,67.79
2022-09-07T04:53:49.639Z,68.01
2022-09-07T04:54:49.725Z,68.24
2022-09-07T04:55:49.633Z,67.22
2022-09-07T04:56:49.624Z,69.14
2022-09-07T04:57:49.613Z,66.88
2022-09-07T04:58:49.600Z,68.25
2022-09-07T04:59:49.618Z,65.73
2022-09-07T05:00:49.630Z,67.66
2022-09-07T05:01:49.570Z,67.67
2022-09-07T05:02:49.652Z,68.04
2022-09-07T05:03:49.546Z,66.12
2022-09-07T05:04:49.554Z,66.29
2022-09-07T05:05:49.517Z,68.30
2022-09-07T05:06:49.523Z,66.38
2022-09-07T05:07:49.514Z,67.07
2022-09-07T05:08:49.499Z,67.39
2022-09-07T05:09:49.516Z,64.99
2022-09-07T05:10:49.489Z,66.53
2022-09-07T05:11:49.476Z,66.29
2022-09-07T05:12:49.464Z,68.63
2022-09-07T05:13:49.452Z,68.39
2022-09-07T05:14:49.454Z,67.38
2022-09-07T05:15:49.452Z,67.66
2022-09-07T05:16:49.498Z,66.93
2022-09-07T05:17:49.397Z,67.93
2022-09-07T05:18:49.396Z,68.61
2022-09-07T05:19:49.411Z,67.71
2022-09-07T05:20:49.382Z,66.46
2022-09-07T05:21:49.369Z,68.17
2022-09-07T05:22:49.358Z,66.47
2022-09-07T05:23:49.364Z,65.82
2022-09-07T05:24:49.342Z,66.25
2022-09-07T05:25:49.330Z,67.50
2022-09-07T05:26:49.310Z,67.89
2022-09-07T05:27:49.310Z,66.09
2022-09-07T05:28:49.400Z,68.44
2022-09-07T05:30:05.756Z,68.04
2022-09-07T05:31:51.275Z,68.77
2022-09-07T05:32:49.247Z,68.52
2022-09-07T05:34:53.002Z,67.92
2022-09-07T05:35:50.228Z,65.87
2022-09-07T05:36:49.217Z,65.44
2022-09-07T05:37:49.213Z,62.88
2022-09-07T05:38:49.221Z,65.10
2022-09-07T05:39:49.239Z,64.30
2022-09-07T05:40:49.180Z,65.52
2022-09-07T05:41:49.182Z,64.22
2022-09-07T05:42:50.154Z,65.97
2022-09-07T05:44:51.165Z,65.03
2022-09-07T05:45:49.202Z,65.05
2022-09-07T05:46:49.114Z,64.53
2022-09-07T05:47:49.106Z,64.16
2022-09-07T05:48:49.090Z,64.98
2022-09-07T05:49:50.362Z,64.25
2022-09-07T05:50:49.148Z,64.20
2022-09-07T05:51:49.066Z,64.39
2022-09-07T05:52:49.052Z,64.41
2022-09-07T05:53:49.043Z,62.59
2022-09-07T05:54:49.037Z,62.48
2022-09-07T05:55:49.034Z,63.02
2022-09-07T05:56:49.012Z,62.99
2022-09-07T05:57:49.001Z,62.82
2022-09-07T05:58:48.986Z,62.51
2022-09-07T05:59:49.001Z,63.59
2022-09-07T06:00:48.972Z,63.04
2022-09-07T06:01:49.151Z,62.03
2022-09-07T06:02:49.036Z,63.63
2022-09-07T06:03:48.940Z,61.56
2022-09-07T06:04:48.956Z,61.47
2022-09-07T06:05:48.926Z,64.55
2022-09-07T06:07:17.566Z,61.21
2022-09-07T06:07:50.923Z,63.15
2022-09-07T06:08:48.911Z,64.99
2022-09-07T06:10:50.877Z,63.07
2022-09-07T06:11:48.865Z,64.68
2022-09-07T06:12:49.404Z,64.10
2022-09-07T06:13:48.847Z,64.24
2022-09-07T06:14:48.858Z,65.34
2022-09-07T06:15:48.829Z,64.86
2022-09-07T06:16:48.843Z,65.39
2022-09-07T06:17:48.796Z,64.59
2022-09-07T06:18:48.788Z,66.06
2022-09-07T06:19:48.803Z,65.74
2022-09-07T06:20:48.779Z,64.93
2022-09-07T06:21:48.765Z,65.60
2022-09-07T06:22:48.747Z,65.77
2022-09-07T06:23:48.745Z,65.12
2022-09-07T06:24:48.747Z,65.41
2022-09-07T06:25:48.724Z,65.66
2022-09-07T06:26:48.707Z,65.39
2022-09-07T06:27:48.702Z,64.87
2022-09-07T06:28:50.229Z,66.16
2022-09-07T06:29:49.701Z,66.82
2022-09-07T06:30:48.663Z,66.17
2022-09-07T06:32:50.657Z,64.39
2022-09-07T06:33:48.665Z,64.58
2022-09-07T06:34:48.628Z,65.26
2022-09-07T06:35:48.624Z,66.55
2022-09-07T06:36:48.613Z,66.08
2022-09-07T06:37:48.613Z,65.41
2022-09-07T06:38:48.611Z,64.29
2022-09-07T06:39:48.629Z,64.32
2022-09-07T06:40:48.800Z,64.61
2022-09-07T06:42:04.911Z,67.16
2022-09-07T06:42:50.560Z,65.76
2022-09-07T06:43:48.565Z,65.84
2022-09-07T06:44:48.547Z,63.98
2022-09-07T06:45:48.618Z,64.69
2022-09-07T06:47:04.449Z,64.96
2022-09-07T06:47:50.502Z,64.19
2022-09-07T06:48:48.509Z,62.69
2022-09-07T06:49:48.485Z,64.61
2022-09-07T06:50:48.463Z,63.99
2022-09-07T06:51:48.464Z,63.31
2022-09-07T06:53:50.642Z,63.83
2022-09-07T06:55:03.646Z,63.27
2022-09-07T06:55:50.424Z,63.40
2022-09-07T06:56:48.431Z,63.93
2022-09-07T06:57:48.411Z,62.99
2022-09-07T06:58:48.402Z,62.97
2022-09-07T06:59:48.381Z,61.56
2022-09-07T07:00:48.449Z,63.30
2022-09-07T07:01:48.364Z,63.49
2022-09-07T07:02:48.388Z,65.25
2022-09-07T07:03:48.336Z,64.06
2022-09-07T07:04:48.345Z,62.64
2022-09-07T07:05:48.323Z,62.81
2022-09-07T07:06:48.302Z,62.51
2022-09-07T07:07:48.302Z,61.97
2022-09-07T07:08:48.293Z,63.27
2022-09-07T07:09:48.291Z,61.85
2022-09-07T07:10:48.278Z,63.04
2022-09-07T07:11:48.256Z,61.82
2022-09-07T07:12:48.258Z,63.78
2022-09-07T07:13:48.244Z,62.55
2022-09-07T07:14:48.270Z,61.62
2022-09-07T07:15:48.223Z,61.27
2022-09-07T07:16:48.240Z,62.57
2022-09-07T07:17:56.095Z,63.17
2022-09-07T07:18:50.181Z,63.71
2022-09-07T07:19:48.219Z,62.37
2022-09-07T07:20:49.174Z,61.76
2022-09-07T07:22:10.719Z,64.18
2022-09-07T07:22:50.165Z,62.37
2022-09-07T07:23:48.159Z,61.66
2022-09-07T07:24:48.130Z,63.03
2022-09-07T07:25:48.114Z,62.37
2022-09-07T07:26:48.115Z,62.94
2022-09-07T07:27:48.106Z,62.38
2022-09-07T07:29:04.145Z,64.45
2022-09-07T07:29:50.075Z,61.83
2022-09-07T07:30:48.074Z,62.19
2022-09-07T07:31:48.060Z,62.13
2022-09-07T07:32:48.053Z,62.75
2022-09-07T07:33:48.241Z,62.78
2022-09-07T07:34:48.023Z,62.54
2022-09-07T07:35:49.012Z,61.64
2022-09-07T07:36:48.007Z,63.18
2022-09-07T07:37:48.013Z,61.78
2022-09-07T07:39:03.450Z,61.30
2022-09-07T07:40:21.976Z,61.76
2022-09-07T07:42:48.952Z,61.39
2022-09-07T07:43:47.961Z,60.42
2022-09-07T07:44:48.021Z,61.60
2022-09-07T07:45:55.195Z,59.84
2022-09-07T07:46:49.031Z,61.57
2022-09-07T07:47:47.896Z,60.77
2022-09-07T07:48:47.912Z,60.30
2022-09-07T07:49:48.028Z,62.53
2022-09-07T07:50:47.873Z,61.82
2022-09-07T07:52:50.394Z,60.35
2022-09-07T07:53:48.853Z,62.00
2022-09-07T07:54:47.826Z,62.13
2022-09-07T07:55:47.889Z,62.27
2022-09-07T07:56:47.813Z,60.38
2022-09-07T07:57:47.812Z,61.21
2022-09-07T07:58:47.811Z,61.44
2022-09-07T07:59:47.783Z,61.52
2022-09-07T08:00:56.077Z,61.25
2022-09-07T08:01:50.082Z,61.61
2022-09-07T08:02:47.866Z,59.82
2022-09-07T08:03:47.750Z,62.96
2022-09-07T08:04:47.751Z,60.85
2022-09-07T08:05:47.728Z,61.20
2022-09-07T08:06:47.719Z,59.84
2022-09-07T08:07:47.709Z,61.62
2022-09-07T08:08:47.702Z,60.55
2022-09-07T08:09:47.714Z,61.07
2022-09-07T08:10:47.680Z,60.20
2022-09-07T08:11:47.671Z,60.53
2022-09-07T08:12:47.661Z,63.56
2022-09-07T08:13:47.635Z,60.19
2022-09-07T08:14:47.652Z,60.89
2022-09-07T08:15:47.629Z,61.44
2022-09-07T08:16:47.685Z,60.38
2022-09-07T08:17:47.599Z,59.98
2022-09-07T08:18:47.601Z,60.81
2022-09-07T08:19:47.639Z,61.88
2022-09-07T08:20:48.366Z,59.86
2022-09-07T08:21:47.569Z,61.61
2022-09-07T08:22:47.557Z,61.38
2022-09-07T08:23:47.549Z,59.41
2022-09-07T08:24:47.552Z,58.71
2022-09-07T08:25:47.526Z,61.43
2022-09-07T08:26:47.519Z,60.77
2022-09-07T08:27:47.509Z,60.55
2022-09-07T08:28:47.531Z,59.85
2022-09-07T08:29:47.487Z,61.25
2022-09-07T08:30:47.486Z,59.65
2022-09-07T08:31:47.528Z,59.37
2022-09-07T08:32:47.469Z,60.09
2022-09-07T08:33:47.469Z,59.02
2022-09-07T08:34:47.440Z,58.79
2022-09-07T08:35:47.434Z,60.39
2022-09-07T08:36:47.415Z,59.55
2022-09-07T08:37:47.520Z,59.77
2022-09-07T08:38:47.426Z,59.77
2022-09-07T08:39:47.407Z,59.20
2022-09-07T08:40:47.393Z,58.62
2022-09-07T08:41:47.364Z,58.90
2022-09-07T08:42:47.351Z,58.51
2022-09-07T08:43:49.201Z,60.56
2022-09-07T08:44:48.337Z,59.17
2022-09-07T08:45:47.331Z,59.33
2022-09-07T08:46:47.426Z,57.89
2022-09-07T08:47:47.305Z,58.84
2022-09-07T08:48:47.318Z,58.25
2022-09-07T08:49:47.279Z,58.41
2022-09-07T08:50:47.287Z,59.56
2022-09-07T08:51:47.288Z,58.34
2022-09-07T08:52:47.256Z,59.60
2022-09-07T08:53:47.306Z,56.10
2022-09-07T08:54:47.243Z,57.94
2022-09-07T08:55:47.224Z,59.94
2022-09-07T08:57:49.207Z,59.63
2022-09-07T08:58:49.865Z,58.34
2022-09-07T08:59:48.188Z,56.99
2022-09-07T09:00:47.499Z,57.00
2022-09-07T09:02:26.917Z,57.68
2022-09-07T09:05:49.194Z,58.71
2022-09-07T09:06:47.232Z,59.10
2022-09-07T09:07:47.127Z,57.47
2022-09-07T09:08:47.120Z,58.40
2022-09-07T09:09:47.088Z,58.77
2022-09-07T09:10:47.079Z,58.34
2022-09-07T09:11:47.067Z,59.09
2022-09-07T09:12:47.057Z,58.18
2022-09-07T09:13:47.057Z,56.91
2022-09-07T09:14:47.040Z,57.12
2022-09-07T09:15:47.040Z,56.79
2022-09-07T09:16:47.020Z,57.22
2022-09-07T09:17:47.010Z,59.20
2022-09-07T09:18:47.000Z,59.13
2022-09-07T09:19:47.050Z,59.36
2022-09-07T09:20:46.984Z,59.08
2022-09-07T09:21:46.976Z,59.75
2022-09-07T09:22:46.964Z,59.63
2022-09-07T09:23:46.968Z,60.72
2022-09-07T09:24:46.942Z,59.87
2022-09-07T09:25:46.923Z,59.48
2022-09-07T09:26:46.987Z,57.71
2022-09-07T09:27:46.909Z,56.83
2022-09-07T09:28:46.897Z,57.41
2022-09-07T09:29:46.914Z,59.55
2022-09-07T09:30:46.980Z,61.07
2022-09-07T09:31:46.873Z,59.65
2022-09-07T09:32:46.858Z,59.80
2022-09-07T09:33:46.856Z,60.28
2022-09-07T09:34:46.837Z,59.76
2022-09-07T09:35:46.826Z,58.05
2022-09-07T09:36:46.823Z,59.39
2022-09-07T09:37:46.807Z,61.82
2022-09-07T09:38:46.788Z,61.09
2022-09-07T09:39:49.037Z,58.84
2022-09-07T09:40:46.774Z,59.25
2022-09-07T09:41:46.796Z,59.02
2022-09-07T09:42:46.746Z,58.91
2022-09-07T09:43:46.774Z,58.80
2022-09-07T09:44:46.742Z,59.37
2022-09-07T09:47:29.560Z,57.16
2022-09-07T09:47:47.754Z,57.80
2022-09-07T09:48:46.704Z,58.21
2022-09-07T09:49:46.788Z,56.93
2022-09-07T09:52:51.783Z,57.61
2022-09-07T09:53:47.666Z,57.48
2022-09-07T09:54:46.636Z,58.28
2022-09-07T09:55:46.613Z,58.35
2022-09-07T09:56:47.622Z,59.19
2022-09-07T09:59:04.639Z,58.27
2022-09-07T09:59:58.130Z,58.57
2022-09-07T10:03:56.736Z,57.35
2022-09-07T10:04:48.553Z,57.99
2022-09-07T10:05:46.531Z,57.36
2022-09-07T10:06:46.512Z,58.15
2022-09-07T10:07:46.511Z,58.96
2022-09-07T10:08:46.502Z,57.33
2022-09-07T10:09:46.509Z,57.38
2022-09-07T10:10:46.481Z,57.71
2022-09-07T10:12:48.458Z,57.44
2022-09-07T10:13:46.845Z,56.42
2022-09-07T10:14:46.463Z,55.57
2022-09-07T10:15:46.464Z,55.36
2022-09-07T10:16:46.426Z,54.68
2022-09-07T10:17:46.430Z,54.43
2022-09-07T10:18:46.402Z,56.20
2022-09-07T10:20:12.304Z,55.43
2022-09-07T10:20:46.383Z,56.63
2022-09-07T10:21:46.390Z,55.09
2022-09-07T10:22:50.886Z,54.16
2022-09-07T10:23:48.351Z,54.81
2022-09-07T10:24:46.365Z,55.86
2022-09-07T10:25:46.340Z,57.47
2022-09-07T10:26:46.329Z,57.67
2022-09-07T10:27:46.313Z,58.45
2022-09-07T10:29:48.312Z,57.30
2022-09-07T10:30:46.329Z,57.04
2022-09-07T10:31:46.279Z,59.43
2022-09-07T10:32:46.268Z,58.44
2022-09-07T10:34:25.649Z,58.05
2022-09-07T10:34:48.280Z,57.54
2022-09-07T10:35:46.240Z,59.89
2022-09-07T10:36:46.229Z,59.97
2022-09-07T10:37:46.210Z,59.32
2022-09-07T10:38:46.207Z,57.11
2022-09-07T10:39:46.248Z,58.74
2022-09-07T10:40:46.200Z,59.13
2022-09-07T10:41:46.174Z,58.62
2022-09-07T10:43:20.724Z,58.52
2022-09-07T10:43:48.160Z,57.45
2022-09-07T10:44:46.161Z,57.16
2022-09-07T10:45:46.139Z,57.78
2022-09-07T10:47:01.431Z,58.76
2022-09-07T10:47:48.126Z,59.79
2022-09-07T10:48:46.156Z,57.89
2022-09-07T10:50:48.082Z,60.89
2022-09-07T10:51:46.071Z,59.15
2022-09-07T10:52:46.069Z,60.62
2022-09-07T10:53:46.584Z,59.63
2022-09-07T10:54:46.059Z,58.89
2022-09-07T10:55:46.038Z,57.94
2022-09-07T10:56:46.033Z,59.81
2022-09-07T10:57:49.057Z,59.44
2022-09-07T10:59:02.245Z,59.60
2022-09-07T11:00:47.991Z,61.49
2022-09-07T11:01:45.999Z,60.33
2022-09-07T11:03:24.932Z,61.82
2022-09-07T11:03:48.015Z,61.48
2022-09-07T11:04:45.962Z,61.01
2022-09-07T11:05:45.948Z,62.10
2022-09-07T11:06:45.938Z,60.99
2022-09-07T11:07:45.937Z,59.20
2022-09-07T11:09:47.951Z,58.08
2022-09-07T11:10:46.902Z,59.62
2022-09-07T11:12:01.935Z,59.89
2022-09-07T11:12:47.889Z,60.06
2022-09-07T11:14:09.338Z,60.25
2022-09-07T11:14:47.883Z,58.01
2022-09-07T11:15:45.886Z,58.37
2022-09-07T11:16:53.148Z,58.92
2022-09-07T11:17:52.549Z,58.36
2022-09-07T11:18:46.835Z,58.72
2022-09-07T11:19:45.843Z,55.80
2022-09-07T11:20:45.817Z,54.46
2022-09-07T11:22:01.041Z,55.12
2022-09-07T11:22:47.792Z,56.14
2022-09-07T11:23:45.786Z,55.41
2022-09-07T11:24:46.108Z,57.75
2022-09-07T11:25:46.597Z,57.88
2022-09-07T11:26:45.755Z,57.92
2022-09-07T11:27:45.742Z,57.52
2022-09-07T11:28:45.946Z,56.59
2022-09-07T11:29:45.736Z,56.82
2022-09-07T11:30:45.786Z,56.87
2022-09-07T11:31:45.702Z,57.20
2022-09-07T11:32:45.700Z,57.85
2022-09-07T11:34:23.829Z,59.29
2022-09-07T11:34:47.689Z,56.78
2022-09-07T11:35:45.665Z,57.57
2022-09-07T11:36:45.657Z,58.13
2022-09-07T11:37:45.649Z,58.60
2022-09-07T11:38:45.640Z,58.56
2022-09-07T11:39:45.711Z,58.45
2022-09-07T11:40:45.615Z,58.22
2022-09-07T11:41:45.605Z,58.58
2022-09-07T11:42:45.597Z,58.85
2022-09-07T11:43:45.610Z,56.39
2022-09-07T11:44:45.602Z,56.96
2022-09-07T11:45:45.565Z,56.16
2022-09-07T11:46:45.657Z,57.35
2022-09-07T11:47:45.557Z,59.96
2022-09-07T11:48:45.542Z,61.14
2022-09-07T11:49:51.471Z,59.79
2022-09-07T11:50:46.523Z,59.16
2022-09-07T11:51:45.523Z,58.67
2022-09-07T11:52:45.508Z,57.03
2022-09-07T11:53:45.497Z,56.90
2022-09-07T11:54:45.495Z,57.87
2022-09-07T11:55:45.470Z,57.02
2022-09-07T11:56:45.967Z,57.57
2022-09-07T11:57:46.455Z,57.53
2022-09-07T11:58:45.443Z,58.30
2022-09-07T11:59:45.446Z,58.55
2022-09-07T12:00:46.426Z,58.70
2022-09-07T12:01:45.418Z,57.89
2022-09-07T12:02:58.768Z,56.56
2022-09-07T12:03:47.512Z,57.16
2022-09-07T12:04:45.439Z,56.28
2022-09-07T12:05:45.381Z,57.15
2022-09-07T12:06:45.370Z,58.30
2022-09-07T12:07:45.361Z,59.78
2022-09-07T12:08:45.355Z,59.45
2022-09-07T12:09:45.359Z,59.77
2022-09-07T12:10:45.331Z,60.25
2022-09-07T12:11:45.319Z,59.73
2022-09-07T12:12:45.311Z,59.18
2022-09-07T12:13:45.300Z,57.17
2022-09-07T12:14:45.306Z,56.57
2022-09-07T12:15:45.295Z,58.14
2022-09-07T12:16:45.266Z,57.69
2022-09-07T12:17:45.260Z,56.52
2022-09-07T12:18:45.248Z,57.77
2022-09-07T12:19:45.253Z,58.36
2022-09-07T12:20:45.228Z,57.61
2022-09-07T12:21:45.218Z,59.08
2022-09-07T12:22:45.206Z,60.23
2022-09-07T12:23:45.200Z,58.56
2022-09-07T12:24:45.213Z,59.60
2022-09-07T12:25:45.179Z,58.55
2022-09-07T12:26:45.167Z,57.73
2022-09-07T12:27:45.158Z,59.41
2022-09-07T12:28:45.148Z,57.96
2022-09-07T12:29:45.587Z,56.96
2022-09-07T12:30:45.139Z,57.38
2022-09-07T12:31:57.670Z,58.38
2022-09-07T12:32:55.868Z,57.82
2022-09-07T12:33:47.104Z,58.06
2022-09-07T12:34:45.109Z,61.16
2022-09-07T12:35:45.084Z,58.93
2022-09-07T12:36:45.067Z,58.66
2022-09-07T12:37:45.057Z,58.59
2022-09-07T12:38:45.049Z,58.00
2022-09-07T12:39:45.098Z,59.37
2022-09-07T12:40:45.030Z,60.45
2022-09-07T12:41:47.370Z,61.34
2022-09-07T12:42:45.009Z,59.96
2022-09-07T12:43:45.008Z,58.17
2022-09-07T12:44:45.013Z,57.49
2022-09-07T12:45:44.984Z,57.49
2022-09-07T12:46:46.740Z,58.18
2022-09-07T12:47:44.963Z,60.12
2022-09-07T12:48:44.955Z,59.38
2022-09-07T12:49:44.962Z,58.69
2022-09-07T12:50:44.927Z,59.44
2022-09-07T12:52:06.852Z,58.44
2022-09-07T12:52:46.910Z,58.28
2022-09-07T12:53:44.903Z,58.47
2022-09-07T12:54:44.914Z,58.34
2022-09-07T12:56:47.080Z,58.67
2022-09-07T12:57:44.864Z,58.92
2022-09-07T12:58:44.876Z,57.89
2022-09-07T12:59:44.856Z,58.14
2022-09-07T13:00:44.842Z,58.64
2022-09-07T13:01:44.921Z,59.37
2022-09-07T13:02:44.888Z,59.85
2022-09-07T13:03:52.417Z,58.68
2022-09-07T13:04:46.827Z,59.75
2022-09-07T13:05:44.783Z,60.06
2022-09-07T13:07:46.767Z,60.64
2022-09-07T13:08:44.753Z,59.55
2022-09-07T13:09:44.759Z,59.46
2022-09-07T13:10:44.733Z,57.35
2022-09-07T13:11:45.620Z,57.04
2022-09-07T13:13:00.120Z,58.72
2022-09-07T13:14:04.440Z,58.74
2022-09-07T13:14:46.719Z,57.43
2022-09-07T13:15:44.735Z,57.59
2022-09-07T13:17:46.662Z,56.93
2022-09-07T13:18:44.651Z,56.43
2022-09-07T13:19:44.683Z,57.51
2022-09-07T13:20:44.641Z,56.43
2022-09-07T13:21:44.641Z,57.20
2022-09-07T13:22:44.611Z,56.98